Time;durP1;ratioP1;P1;durP2;ratioP2;P2;SDS_P1;SDS_P2;PMS_P1;PMS_P2;Temp;Humidity;BMP_temperature;BMP_pressure;BME280_temperature;BME280_humidity;BME280_pressure;Samples;Min_cycle;Max_cycle;Signal;HPM_P1;HPM_P2
2021/08/13 00:01:05;;;;;;;1.17;1.07;;;;;;;19.52;100.00;100575.22;4992387;28;20500;-53
2021/08/13 00:03:31;;;;;;;1.37;0.50;;;;;;;19.70;100.00;100565.16;5005483;28;20938;-52
2021/08/13 00:05:58;;;;;;;0.50;0.40;;;;;;;19.47;100.00;100571.97;4989648;28;20524;-53
2021/08/13 00:08:25;;;;;;;1.23;1.13;;;;;;;19.35;100.00;100561.03;4989099;28;20825;-53
2021/08/13 00:10:55;;;;;;;2.10;1.50;;;;;;;19.47;100.00;100571.09;4992666;28;20512;-52
2021/08/13 00:13:22;;;;;;;2.10;0.67;;;;;;;19.39;100.00;100565.28;4988234;28;21005;-52
2021/08/13 00:15:49;;;;;;;0.50;0.30;;;;;;;19.28;100.00;100571.31;4983675;28;20461;-52
2021/08/13 00:18:15;;;;;;;0.60;0.60;;;;;;;19.35;100.00;100561.03;4992379;28;20472;-52
2021/08/13 00:20:42;;;;;;;3.13;2.20;;;;;;;19.23;100.00;100559.94;4981928;28;20478;-53
2021/08/13 00:23:09;;;;;;;0.40;0.30;;;;;;;19.34;100.00;100559.31;4989965;28;20478;-53
2021/08/13 00:25:36;;;;;;;0.40;0.30;;;;;;;19.29;100.00;100564.97;4992322;28;20963;-53
2021/08/13 00:28:03;;;;;;;0.50;0.50;;;;;;;19.32;100.00;100564.78;4978982;28;20481;-52
2021/08/13 00:30:30;;;;;;;3.03;1.80;;;;;;;19.27;100.00;100577.66;4992604;28;20520;-52
2021/08/13 00:32:56;;;;;;;0.40;0.30;;;;;;;19.17;100.00;100569.25;4987464;28;20520;-52
2021/08/13 00:35:23;;;;;;;1.63;1.53;;;;;;;19.24;100.00;100576.03;4984356;28;20453;-53
2021/08/13 00:37:50;;;;;;;0.60;0.57;;;;;;;19.13;100.00;100570.41;4987290;28;20505;-52
2021/08/13 00:40:17;;;;;;;0.97;0.97;;;;;;;19.05;100.00;100574.50;4984570;28;20476;-53
2021/08/13 00:42:43;;;;;;;0.40;0.20;;;;;;;19.22;100.00;100571.69;4992353;28;20477;-52
2021/08/13 00:45:10;;;;;;;1.17;1.17;;;;;;;19.06;100.00;100574.44;4980911;28;20450;-52
2021/08/13 00:47:37;;;;;;;0.40;0.30;;;;;;;19.04;100.00;100583.53;4991739;28;20473;-52
2021/08/13 00:50:05;;;;;;;0.40;0.20;;;;;;;18.89;100.00;100583.50;4994704;28;20461;-52
2021/08/13 00:52:32;;;;;;;0.50;0.50;;;;;;;18.94;100.00;100573.34;4982516;28;20457;-52
2021/08/13 00:54:58;;;;;;;1.13;1.13;;;;;;;19.14;100.00;100579.34;4995916;28;20555;-52
2021/08/13 00:57:25;;;;;;;0.40;0.40;;;;;;;18.91;100.00;100588.78;4990124;28;20529;-52
2021/08/13 00:59:52;;;;;;;0.40;0.30;;;;;;;19.08;100.00;100577.91;4988481;28;20449;-52
2021/08/13 01:02:19;;;;;;;1.17;0.50;;;;;;;19.05;100.00;100572.72;5001750;28;20453;-52
2021/08/13 01:04:46;;;;;;;0.63;0.53;;;;;;;18.93;100.00;100568.91;5002025;28;20533;-53
2021/08/13 01:07:12;;;;;;;0.50;0.30;;;;;;;18.81;100.00;100575.00;4992730;28;20536;-52
2021/08/13 01:09:39;;;;;;;3.13;0.80;;;;;;;18.86;100.00;100572.03;4992331;28;20454;-53
2021/08/13 01:12:37;;;;;;;1.53;1.43;;;;;;;18.99;100.00;100564.09;4988634;28;20455;-53
2021/08/13 01:15:07;;;;;;;0.70;0.70;;;;;;;18.91;100.00;100553.75;4993310;28;20493;-53
2021/08/13 01:17:42;;;;;;;0.40;0.20;;;;;;;18.93;100.00;100547.34;4995170;28;20568;-52
2021/08/13 01:20:37;;;;;;;0.70;0.70;;;;;;;18.92;100.00;100556.41;4995556;28;20523;-53
2021/08/13 01:23:12;;;;;;;0.40;0.30;;;;;;;19.05;100.00;100556.53;4980972;28;20457;-52
2021/08/13 01:25:42;;;;;;;1.07;0.70;;;;;;;18.97;100.00;100552.56;4995113;28;20496;-53
2021/08/13 01:28:36;;;;;;;0.40;0.20;;;;;;;19.01;100.00;100549.56;4989453;28;20590;-52
2021/08/13 01:31:18;;;;;;;0.83;0.83;;;;;;;18.84;100.00;100553.28;4991356;28;20476;-52
2021/08/13 01:33:48;;;;;;;0.50;0.40;;;;;;;18.79;100.00;100560.75;4994979;28;20488;-52
2021/08/13 01:36:15;;;;;;;2.50;0.90;;;;;;;18.97;100.00;100569.59;4985266;28;21005;-52
2021/08/13 01:38:42;;;;;;;0.40;0.20;;;;;;;18.69;100.00;100569.47;4982827;28;21058;-53
2021/08/13 01:41:12;;;;;;;0.40;0.30;;;;;;;18.77;100.00;100581.50;4994055;28;20481;-52
2021/08/13 01:43:41;;;;;;;0.50;0.40;;;;;;;18.77;100.00;100583.34;4994951;28;20552;-53
2021/08/13 01:46:08;;;;;;;2.60;2.50;;;;;;;18.87;100.00;100580.03;4981833;28;20950;-52
2021/08/13 01:48:37;;;;;;;0.50;0.40;;;;;;;19.01;100.00;100571.13;4994522;28;20531;-52
2021/08/13 01:51:05;;;;;;;0.50;0.30;;;;;;;18.83;100.00;100565.00;4981976;28;20454;-52
2021/08/13 01:53:32;;;;;;;0.87;0.87;;;;;;;18.97;100.00;100555.25;4981652;28;20544;-52
2021/08/13 01:56:00;;;;;;;1.00;0.90;;;;;;;18.97;100.00;100557.94;4994738;28;20449;-52
2021/08/13 01:58:28;;;;;;;0.50;0.40;;;;;;;18.85;100.00;100562.22;4993174;28;20548;-53
2021/08/13 02:00:56;;;;;;;1.53;1.13;;;;;;;18.86;100.00;100553.19;4982360;28;20453;-53
2021/08/13 02:03:23;;;;;;;0.50;0.50;;;;;;;18.85;100.00;100557.69;5007632;28;20457;-52
2021/08/13 02:05:52;;;;;;;0.40;0.20;;;;;;;18.83;100.00;100565.00;4991373;28;20449;-53
2021/08/13 02:08:20;;;;;;;0.40;0.20;;;;;;;18.93;100.00;100552.75;4992119;28;20477;-53
2021/08/13 02:10:49;;;;;;;0.40;0.30;;;;;;;18.84;100.00;100538.94;4993804;28;20450;-53
2021/08/13 02:13:16;;;;;;;0.53;0.53;;;;;;;18.77;100.00;100546.50;4980736;28;20493;-53
2021/08/13 02:15:53;;;;;;;0.50;0.30;;;;;;;18.85;100.00;100555.00;4993969;28;20492;-53
2021/08/13 02:18:23;;;;;;;0.53;0.50;;;;;;;18.97;100.00;100561.50;4989898;28;20470;-53
2021/08/13 02:20:54;;;;;;;0.40;0.20;;;;;;;18.92;100.00;100563.59;4985642;28;20480;-52
2021/08/13 02:23:21;;;;;;;0.67;0.67;;;;;;;18.98;100.00;100574.00;4993813;28;20891;-53
2021/08/13 02:25:48;;;;;;;0.40;0.30;;;;;;;18.90;100.00;100587.91;4982295;28;20478;-53
2021/08/13 02:28:14;;;;;;;1.03;0.93;;;;;;;18.93;100.00;100582.38;4992681;28;20620;-53
2021/08/13 02:30:41;;;;;;;0.50;0.40;;;;;;;18.91;100.00;100604.94;4994007;28;20457;-52
2021/08/13 02:33:08;;;;;;;1.43;1.43;;;;;;;19.01;100.00;100599.91;4980874;28;20512;-53
2021/08/13 02:35:34;;;;;;;0.90;0.50;;;;;;;19.16;100.00;100602.56;4993775;28;20552;-53
2021/08/13 02:38:10;;;;;;;0.50;0.40;;;;;;;19.22;100.00;100591.44;4987409;28;20470;-53
2021/08/13 02:40:43;;;;;;;2.83;0.60;;;;;;;19.30;100.00;100598.19;4988062;28;20935;-52
2021/08/13 02:43:20;;;;;;;0.70;0.70;;;;;;;19.31;100.00;100611.56;4993959;28;20446;-52
2021/08/13 02:45:52;;;;;;;0.60;0.53;;;;;;;19.30;100.00;100603.56;4980692;28;20449;-52
2021/08/13 02:48:20;;;;;;;0.40;0.27;;;;;;;19.30;100.00;100590.09;4993646;28;20469;-52
2021/08/13 02:50:48;;;;;;;0.40;0.20;;;;;;;18.91;100.00;100588.78;4988745;28;20936;-54
2021/08/13 02:53:21;;;;;;;0.50;0.30;;;;;;;18.83;100.00;100591.06;4985383;28;20449;-54
2021/08/13 02:56:02;;;;;;;0.40;0.20;;;;;;;18.71;100.00;100589.94;4993700;28;20500;-54
2021/08/13 02:58:50;;;;;;;2.93;0.80;;;;;;;18.71;100.00;100584.56;4980135;28;20467;-54
2021/08/13 03:01:28;;;;;;;1.37;1.37;;;;;;;18.64;100.00;100584.06;4993463;28;20445;-54
2021/08/13 03:03:55;;;;;;;0.40;0.30;;;;;;;18.67;100.00;100588.41;4992806;28;20959;-54
2021/08/13 03:06:26;;;;;;;0.50;0.43;;;;;;;18.67;100.00;100582.16;4990456;28;20457;-54
2021/08/13 03:08:56;;;;;;;1.17;1.17;;;;;;;18.66;100.00;100577.72;4980791;28;20935;-54
2021/08/13 03:11:23;;;;;;;2.17;0.90;;;;;;;18.41;100.00;100576.38;5007765;28;20476;-54
2021/08/13 03:13:51;;;;;;;0.50;0.40;;;;;;;18.49;100.00;100575.94;4993045;28;20860;-55
2021/08/13 03:16:18;;;;;;;0.50;0.40;;;;;;;18.33;100.00;100575.94;4979822;28;20507;-54
2021/08/13 03:18:45;;;;;;;0.40;0.30;;;;;;;18.67;100.00;100583.00;4993146;28;20505;-54
2021/08/13 03:21:13;;;;;;;0.70;0.60;;;;;;;18.80;100.00;100585.88;4992951;28;20480;-54
2021/08/13 03:23:40;;;;;;;0.40;0.23;;;;;;;18.85;100.00;100586.47;4985319;28;20450;-55
2021/08/13 03:26:07;;;;;;;0.50;0.50;;;;;;;18.99;100.00;100589.22;4987926;28;20453;-55
2021/08/13 03:28:35;;;;;;;0.50;0.30;;;;;;;19.13;100.00;100591.97;4992747;28;20477;-55
2021/08/13 03:31:02;;;;;;;0.40;0.27;;;;;;;19.41;100.00;100601.09;4979873;28;20454;-55
2021/08/13 03:33:29;;;;;;;0.40;0.20;;;;;;;19.27;100.00;100601.06;4992859;28;20969;-55
2021/08/13 03:35:57;;;;;;;2.20;0.60;;;;;;;19.33;100.00;100595.31;4992803;28;20552;-54
2021/08/13 03:38:24;;;;;;;1.40;1.20;;;;;;;19.37;100.00;100591.47;4983808;28;20529;-54
2021/08/13 03:40:51;;;;;;;0.50;0.40;;;;;;;19.33;100.00;100589.94;4989142;28;20477;-55
2021/08/13 03:43:17;;;;;;;1.53;0.70;;;;;;;19.34;100.00;100588.97;4992843;28;20449;-55
2021/08/13 03:45:44;;;;;;;0.40;0.20;;;;;;;19.55;100.00;100581.44;4976947;28;20458;-55
2021/08/13 03:48:11;;;;;;;0.67;0.67;;;;;;;18.99;100.00;100562.28;4982524;28;21028;-54
2021/08/13 03:50:37;;;;;;;9.60;2.63;;;;;;;19.14;100.00;100565.88;4992566;28;20466;-55
2021/08/13 03:53:04;;;;;;;0.40;0.30;;;;;;;19.13;100.00;100570.41;4983678;28;20458;-55
2021/08/13 03:55:30;;;;;;;0.70;0.70;;;;;;;19.23;100.00;100579.69;4989044;28;20575;-54
2021/08/13 03:57:57;;;;;;;1.17;1.17;;;;;;;19.36;100.00;100593.31;4992679;28;20501;-54
2021/08/13 04:00:23;;;;;;;1.20;1.17;;;;;;;19.28;100.00;100602.78;4979574;28;20449;-55
2021/08/13 04:02:50;;;;;;;0.67;0.67;;;;;;;19.30;100.00;100608.97;5003216;28;20487;-54
2021/08/13 04:05:17;;;;;;;1.23;1.23;;;;;;;19.33;100.00;100612.38;4991620;28;20489;-55
2021/08/13 04:07:44;;;;;;;0.40;0.20;;;;;;;19.46;100.00;100620.56;4992833;28;21057;-55
2021/08/13 04:10:11;;;;;;;0.40;0.20;;;;;;;19.55;100.00;100619.19;4988906;28;20484;-55
2021/08/13 04:12:37;;;;;;;0.50;0.40;;;;;;;19.87;100.00;100615.38;4981362;28;20459;-55
2021/08/13 04:15:04;;;;;;;0.50;0.40;;;;;;;19.44;100.00;100609.88;4990586;28;20507;-55
2021/08/13 04:17:31;;;;;;;0.40;0.37;;;;;;;19.46;100.00;100620.56;4992594;28;20478;-54
2021/08/13 04:19:58;;;;;;;1.13;0.57;;;;;;;19.34;100.00;100613.22;4979446;28;20457;-54
2021/08/13 04:22:25;;;;;;;0.40;0.27;;;;;;;19.17;100.00;100612.38;4992985;28;20453;-54
2021/08/13 04:24:53;;;;;;;2.20;2.10;;;;;;;19.20;100.00;100608.66;4990942;28;20450;-55
2021/08/13 04:27:19;;;;;;;0.50;0.40;;;;;;;19.02;100.00;100607.03;4988639;28;20449;-55
2021/08/13 04:29:46;;;;;;;0.50;0.37;;;;;;;18.89;100.00;100609.56;4996043;28;20864;-55
2021/08/13 04:32:13;;;;;;;0.50;0.30;;;;;;;19.02;100.00;100618.66;4984194;28;20521;-54
2021/08/13 04:34:40;;;;;;;0.80;0.80;;;;;;;19.22;100.00;100610.28;4995273;28;20521;-54
2021/08/13 04:37:06;;;;;;;0.40;0.20;;;;;;;19.26;100.00;100602.03;4995948;28;20511;-55
2021/08/13 04:39:33;;;;;;;1.30;1.27;;;;;;;19.34;100.00;100605.16;4982568;28;20873;-55
2021/08/13 04:41:59;;;;;;;0.50;0.30;;;;;;;19.19;100.00;100601.53;4996047;28;20508;-55
2021/08/13 04:44:26;;;;;;;0.40;0.20;;;;;;;19.40;100.00;100600.22;4990150;28;20450;-55
2021/08/13 04:46:53;;;;;;;0.67;0.67;;;;;;;19.54;100.00;100604.78;4989174;28;20669;-55
2021/08/13 04:49:19;;;;;;;2.20;2.10;;;;;;;19.61;100.00;100592.72;4995529;28;20987;-55
2021/08/13 04:51:46;;;;;;;0.40;0.20;;;;;;;19.71;100.00;100598.41;4983417;28;20458;-55
2021/08/13 04:54:12;;;;;;;0.80;0.63;;;;;;;19.71;100.00;100599.25;4992263;28;20496;-55
2021/08/13 04:56:39;;;;;;;0.50;0.30;;;;;;;19.77;100.00;100603.44;4994489;28;20480;-55
2021/08/13 04:59:06;;;;;;;6.00;3.30;;;;;;;19.67;100.00;100622.00;4995564;28;20478;-55
2021/08/13 05:01:32;;;;;;;0.63;0.63;;;;;;;19.67;100.00;100615.75;4995487;28;20484;-55
2021/08/13 05:03:59;;;;;;;2.30;0.67;;;;;;;19.83;100.00;100619.22;5008639;28;20491;-55
2021/08/13 05:06:26;;;;;;;0.50;0.40;;;;;;;19.82;100.00;100621.06;4992876;28;20450;-55
2021/08/13 05:08:53;;;;;;;0.50;0.40;;;;;;;19.98;100.00;100620.09;4994294;28;20901;-55
2021/08/13 05:11:19;;;;;;;0.40;0.20;;;;;;;20.37;100.00;100601.41;4995267;28;21014;-55
2021/08/13 05:13:46;;;;;;;0.40;0.30;;;;;;;20.95;100.00;100630.03;4988695;28;20466;-55
2021/08/13 05:16:12;;;;;;;2.00;1.00;;;;;;;21.32;100.00;100613.22;4987514;28;20561;-56
2021/08/13 05:18:39;;;;;;;1.90;1.90;;;;;;;21.83;100.00;100619.59;4995138;28;20671;-55
2021/08/13 05:21:06;;;;;;;1.37;1.27;;;;;;;21.83;100.00;100623.16;4981848;28;20990;-55
2021/08/13 05:23:33;;;;;;;0.40;0.20;;;;;;;22.23;100.00;100624.94;4995286;28;20556;-55
2021/08/13 05:26:00;;;;;;;0.50;0.30;;;;;;;22.73;98.45;100632.94;4994519;28;20450;-55
2021/08/13 05:28:26;;;;;;;2.20;1.47;;;;;;;22.51;98.83;100634.63;4982776;28;20639;-54
2021/08/13 05:30:53;;;;;;;2.37;2.27;;;;;;;22.98;96.66;100644.72;4994990;28;20524;-54
2021/08/13 05:33:20;;;;;;;1.27;1.27;;;;;;;23.11;96.16;100634.66;4987652;28;20512;-54
2021/08/13 05:35:47;;;;;;;0.40;0.30;;;;;;;22.99;97.54;100630.16;4988965;28;20576;-54
2021/08/13 05:38:13;;;;;;;0.40;0.20;;;;;;;22.94;96.79;100626.94;4986049;28;20478;-54
2021/08/13 05:40:40;;;;;;;0.40;0.30;;;;;;;22.65;98.09;100632.66;4989465;28;20443;-54
2021/08/13 05:43:07;;;;;;;2.20;2.10;;;;;;;22.55;99.24;100628.00;4994613;28;20453;-54
2021/08/13 05:45:34;;;;;;;0.40;0.30;;;;;;;22.29;100.00;100627.19;4981463;28;20446;-54
2021/08/13 05:48:00;;;;;;;0.50;0.40;;;;;;;22.18;100.00;100626.09;4994534;28;20474;-54
2021/08/13 05:50:27;;;;;;;0.60;0.60;;;;;;;22.27;100.00;100621.88;4993020;28;20983;-55
2021/08/13 05:52:55;;;;;;;0.40;0.20;;;;;;;22.90;99.14;100636.28;4983144;28;20861;-54
2021/08/13 05:55:22;;;;;;;0.87;0.87;;;;;;;22.69;99.80;100641.41;4994218;28;20999;-54
2021/08/13 05:57:49;;;;;;;0.73;0.73;;;;;;;22.82;97.62;100644.09;4986108;28;20474;-54
2021/08/13 06:00:16;;;;;;;0.93;0.90;;;;;;;22.42;100.00;100630.75;4989376;28;20970;-55
2021/08/13 06:02:58;;;;;;;1.33;1.33;;;;;;;22.22;100.00;100631.31;5003702;28;20942;-54
2021/08/13 06:05:25;;;;;;;0.70;0.70;;;;;;;22.07;100.00;100626.03;4992696;28;20453;-54
2021/08/13 06:07:52;;;;;;;0.70;0.53;;;;;;;21.94;100.00;100619.72;4994114;28;21043;-54
2021/08/13 06:10:20;;;;;;;0.57;0.57;;;;;;;21.77;100.00;100622.72;4990553;28;20947;-54
2021/08/13 06:12:48;;;;;;;0.70;0.70;;;;;;;22.34;100.00;100619.56;4981959;28;20872;-54
2021/08/13 06:15:15;;;;;;;2.87;1.10;;;;;;;21.98;100.00;100620.34;4993115;28;20482;-54
2021/08/13 06:17:43;;;;;;;1.57;1.47;;;;;;;22.06;100.00;100628.81;4994020;28;21006;-54
2021/08/13 06:20:12;;;;;;;0.43;0.27;;;;;;;21.94;100.00;100638.66;4980920;28;21000;-54
2021/08/13 06:22:39;;;;;;;0.40;0.23;;;;;;;21.85;100.00;100639.28;4994071;28;20477;-54
2021/08/13 06:25:06;;;;;;;0.57;0.57;;;;;;;22.26;100.00;100652.66;4987251;28;20486;-54
2021/08/13 06:27:33;;;;;;;0.80;0.80;;;;;;;22.52;100.00;100648.06;4987588;28;20801;-55
2021/08/13 06:30:01;;;;;;;6.53;0.60;;;;;;;22.42;99.80;100647.00;4993814;28;20447;-54
2021/08/13 06:32:27;;;;;;;0.80;0.80;;;;;;;23.00;97.88;100657.16;4980757;28;20448;-54
2021/08/13 06:34:54;;;;;;;0.50;0.50;;;;;;;23.07;98.29;100645.88;4993840;28;20489;-54
2021/08/13 06:37:21;;;;;;;0.97;0.87;;;;;;;23.12;97.24;100649.97;4992716;28;20424;-54
2021/08/13 06:39:47;;;;;;;0.50;0.20;;;;;;;23.58;95.31;100646.53;4981940;28;20486;-55
2021/08/13 06:42:14;;;;;;;0.97;0.63;;;;;;;23.51;92.80;100645.22;4993607;28;20454;-55
2021/08/13 06:44:40;;;;;;;0.80;0.73;;;;;;;23.73;94.45;100639.91;4985987;28;20460;-55
2021/08/13 06:47:07;;;;;;;0.50;0.50;;;;;;;23.38;94.88;100636.28;4987603;28;20933;-55
2021/08/13 06:49:34;;;;;;;1.53;0.97;;;;;;;23.54;94.86;100634.09;4993431;28;20454;-55
2021/08/13 06:52:02;;;;;;;6.20;1.07;;;;;;;23.40;93.33;100631.59;4979403;28;20455;-55
2021/08/13 06:54:29;;;;;;;3.17;0.73;;;;;;;23.36;95.08;100628.25;4993747;28;20464;-55
2021/08/13 06:56:55;;;;;;;0.50;0.50;;;;;;;23.59;94.61;100640.09;4991490;28;20485;-55
2021/08/13 06:59:22;;;;;;;0.40;0.20;;;;;;;23.60;94.81;100648.13;4982664;28;20488;-55
2021/08/13 07:01:48;;;;;;;0.50;0.40;;;;;;;23.67;94.87;100650.34;4995528;28;20448;-55
2021/08/13 07:04:15;;;;;;;0.93;0.93;;;;;;;23.81;94.47;100655.56;5004019;28;20511;-55
2021/08/13 07:06:42;;;;;;;1.77;1.67;;;;;;;23.58;94.67;100655.53;4990377;28;20424;-55
2021/08/13 07:09:08;;;;;;;0.50;0.40;;;;;;;23.67;95.71;100667.50;4989838;28;20552;-55
2021/08/13 07:11:35;;;;;;;2.93;0.70;;;;;;;23.81;94.20;100666.44;4990629;28;20427;-55
2021/08/13 07:14:01;;;;;;;0.40;0.30;;;;;;;23.83;93.73;100670.75;4983093;28;20454;-55
2021/08/13 07:16:28;;;;;;;0.60;0.60;;;;;;;23.86;93.79;100669.69;4992818;28;20514;-54
2021/08/13 07:18:55;;;;;;;0.50;0.40;;;;;;;24.17;94.03;100673.56;4983057;28;20460;-55
2021/08/13 07:21:21;;;;;;;1.07;0.93;;;;;;;23.94;94.48;100675.34;4988979;28;20453;-55
2021/08/13 07:23:48;;;;;;;1.23;1.13;;;;;;;24.11;94.33;100674.88;4992892;28;20487;-54
2021/08/13 07:26:14;;;;;;;1.20;1.20;;;;;;;24.14;94.19;100690.97;4979715;28;20504;-55
2021/08/13 07:28:41;;;;;;;0.50;0.50;;;;;;;23.98;95.08;100667.81;4992933;28;20490;-55
2021/08/13 07:31:08;;;;;;;0.50;0.30;;;;;;;24.45;93.89;100675.84;4990456;28;20512;-55
2021/08/13 07:33:34;;;;;;;0.40;0.30;;;;;;;24.22;94.38;100679.47;4982888;28;20498;-55
2021/08/13 07:36:01;;;;;;;2.40;1.53;;;;;;;24.34;94.55;100686.69;4992738;28;20511;-55
2021/08/13 07:38:29;;;;;;;3.17;2.40;;;;;;;24.38;93.12;100676.44;4983143;28;20488;-55
2021/08/13 07:40:55;;;;;;;0.70;0.63;;;;;;;24.51;93.27;100677.19;4989833;28;20913;-55
2021/08/13 07:43:22;;;;;;;3.13;0.63;;;;;;;24.24;92.98;100678.38;4992962;28;20472;-55
2021/08/13 07:45:48;;;;;;;1.30;1.30;;;;;;;24.31;92.86;100688.78;4979734;28;20555;-55
2021/08/13 07:48:15;;;;;;;0.50;0.30;;;;;;;24.23;92.72;100686.63;4992746;28;20444;-55
2021/08/13 07:50:41;;;;;;;0.70;0.70;;;;;;;24.54;92.53;100689.69;4989071;28;20535;-55
2021/08/13 07:53:08;;;;;;;0.73;0.73;;;;;;;24.53;91.29;100696.94;4983457;28;20451;-55
2021/08/13 07:55:35;;;;;;;1.37;1.37;;;;;;;24.62;90.62;100693.50;4992480;28;20551;-55
2021/08/13 07:58:02;;;;;;;2.30;1.77;;;;;;;25.35;89.60;100697.47;4983964;28;20524;-55
2021/08/13 08:00:28;;;;;;;0.50;0.40;;;;;;;25.38;88.29;100689.06;4994683;28;20477;-55
2021/08/13 08:02:55;;;;;;;1.23;1.13;;;;;;;25.44;87.71;100696.72;5007903;28;21333;-55
2021/08/13 08:05:22;;;;;;;2.30;1.03;;;;;;;24.96;88.63;100697.06;4995785;28;20447;-55
2021/08/13 08:07:48;;;;;;;0.43;0.27;;;;;;;25.26;87.81;100693.69;4996726;28;20505;-55
2021/08/13 08:10:16;;;;;;;0.50;0.30;;;;;;;25.23;88.54;100693.09;4993646;28;20479;-55
2021/08/13 08:12:42;;;;;;;0.73;0.73;;;;;;;25.50;87.77;100696.22;4984935;28;20429;-55
2021/08/13 08:15:10;;;;;;;1.33;1.23;;;;;;;25.58;85.86;100701.84;4995543;28;20459;-55
2021/08/13 08:17:37;;;;;;;0.47;0.40;;;;;;;25.49;84.53;100708.06;4996829;28;20479;-55
2021/08/13 08:20:05;;;;;;;1.80;0.87;;;;;;;25.75;85.09;100691.41;4983624;28;20432;-55
2021/08/13 08:22:32;;;;;;;0.50;0.30;;;;;;;25.87;84.89;100690.38;4996527;28;20428;-55
2021/08/13 08:24:59;;;;;;;0.40;0.30;;;;;;;25.97;83.95;100694.03;4990444;28;20545;-55
2021/08/13 08:27:26;;;;;;;0.60;0.60;;;;;;;26.26;83.87;100695.06;4989875;28;20538;-55
2021/08/13 08:29:52;;;;;;;0.50;0.40;;;;;;;26.18;82.51;100697.63;4990121;28;20797;-55
2021/08/13 08:32:19;;;;;;;0.60;0.60;;;;;;;26.11;82.86;100695.56;4989833;28;20476;-55
2021/08/13 08:34:45;;;;;;;0.50;0.50;;;;;;;26.41;83.01;100687.44;4996119;28;20428;-55
2021/08/13 08:37:12;;;;;;;2.73;1.60;;;;;;;26.35;83.06;100685.22;4996124;28;20468;-55
2021/08/13 08:39:40;;;;;;;0.60;0.40;;;;;;;26.35;83.32;100696.13;4983716;28;20497;-55
2021/08/13 08:42:14;;;;;;;1.23;1.23;;;;;;;26.46;82.71;100692.50;4983254;28;20578;-55
2021/08/13 08:44:41;;;;;;;30.20;1.90;;;;;;;26.35;84.81;100693.41;4996343;28;20604;-55
2021/08/13 08:47:09;;;;;;;0.70;0.70;;;;;;;26.70;84.20;100692.16;4994396;28;20452;-55
2021/08/13 08:49:42;;;;;;;0.40;0.30;;;;;;;26.95;83.07;100690.81;4984905;28;20425;-55
2021/08/13 08:52:11;;;;;;;0.80;0.80;;;;;;;27.38;81.52;100691.34;4996162;28;20449;-55
2021/08/13 08:54:40;;;;;;;2.07;1.83;;;;;;;27.31;82.54;100698.41;4986266;28;20457;-55
2021/08/13 08:57:07;;;;;;;0.70;0.70;;;;;;;27.34;81.15;100699.97;4993001;28;20490;-55
2021/08/13 08:59:40;;;;;;;1.90;1.80;;;;;;;27.02;82.34;100687.44;4995948;28;20449;-55
2021/08/13 09:02:07;;;;;;;5.10;1.13;;;;;;;27.66;80.28;100686.94;4989062;28;20446;-55
2021/08/13 09:04:34;;;;;;;0.50;0.50;;;;;;;27.25;82.18;100682.56;5004085;28;20463;-55
2021/08/13 09:07:01;;;;;;;0.50;0.40;;;;;;;27.74;79.72;100694.44;4993138;28;20455;-55
2021/08/13 09:09:27;;;;;;;10.67;1.13;;;;;;;27.73;80.65;100699.03;4991747;28;20502;-55
2021/08/13 09:11:55;;;;;;;0.50;0.40;;;;;;;27.11;81.72;100707.53;4990439;28;21002;-55
2021/08/13 09:14:22;;;;;;;0.67;0.60;;;;;;;27.72;80.34;100708.25;4988157;28;20599;-55
2021/08/13 09:17:02;;;;;;;2.20;2.10;;;;;;;27.24;82.15;100690.91;4995492;28;20524;-55
2021/08/13 09:19:46;;;;;;;0.50;0.30;;;;;;;27.74;81.70;100702.63;4982578;28;20536;-55
2021/08/13 09:22:19;;;;;;;0.57;0.57;;;;;;;27.75;80.56;100712.56;4995425;28;20449;-55
2021/08/13 09:24:48;;;;;;;0.60;0.60;;;;;;;28.03;80.10;100700.72;4991176;28;20919;-55
2021/08/13 09:27:29;;;;;;;1.27;1.27;;;;;;;28.23;80.17;100701.53;4986928;28;20446;-55
2021/08/13 09:30:12;;;;;;;0.40;0.30;;;;;;;28.03;79.62;100698.00;4982333;28;20424;-55
2021/08/13 09:32:41;;;;;;;0.60;0.53;;;;;;;27.87;80.15;100689.53;4981952;28;20486;-55
2021/08/13 09:35:08;;;;;;;0.40;0.30;;;;;;;28.22;78.07;100698.97;4995035;28;20985;-55
2021/08/13 09:37:36;;;;;;;1.27;1.07;;;;;;;28.17;79.26;100701.28;4988371;28;21073;-55
2021/08/13 09:40:03;;;;;;;1.43;1.43;;;;;;;28.14;78.99;100696.13;4985137;28;20516;-55
2021/08/13 09:42:35;;;;;;;7.10;1.43;;;;;;;28.07;79.49;100700.44;4995099;28;20428;-55
2021/08/13 09:45:11;;;;;;;0.60;0.50;;;;;;;28.01;78.87;100705.47;4984417;28;20894;-55
2021/08/13 09:47:46;;;;;;;1.13;1.03;;;;;;;28.46;78.47;100699.34;4993747;28;20902;-55
2021/08/13 09:50:16;;;;;;;0.50;0.30;;;;;;;28.58;76.70;100697.31;4994704;28;20460;-55
2021/08/13 09:53:06;;;;;;;0.80;0.70;;;;;;;29.07;75.23;100707.06;4981336;28;20512;-55
2021/08/13 09:55:32;;;;;;;0.70;0.70;;;;;;;29.06;75.29;100696.25;4994829;28;20511;-55
2021/08/13 09:57:59;;;;;;;0.50;0.40;;;;;;;29.14;73.78;100694.47;4984094;28;20476;-55
2021/08/13 10:00:26;;;;;;;1.00;1.00;;;;;;;28.25;75.45;100701.41;4992056;28;20912;-55
2021/08/13 10:03:06;;;;;;;0.50;0.30;;;;;;;28.16;78.09;100689.47;5005639;28;20445;-55
2021/08/13 10:05:33;;;;;;;0.60;0.50;;;;;;;28.47;77.06;100695.59;4991967;28;20862;-55
2021/08/13 10:08:01;;;;;;;1.10;0.73;;;;;;;28.87;76.55;100691.72;4994273;28;20520;-55
2021/08/13 10:10:33;;;;;;;0.70;0.70;;;;;;;29.07;75.75;100681.56;4990863;28;20457;-55
2021/08/13 10:13:01;;;;;;;0.60;0.53;;;;;;;29.47;73.54;100684.75;4981420;28;20454;-55
2021/08/13 10:15:35;;;;;;;1.33;1.23;;;;;;;29.94;73.25;100678.13;4994189;28;20582;-55
2021/08/13 10:18:07;;;;;;;0.50;0.40;;;;;;;29.89;72.45;100686.84;4992300;28;20476;-55
2021/08/13 10:20:37;;;;;;;0.67;0.50;;;;;;;29.92;71.82;100685.66;4983087;28;20972;-55
2021/08/13 10:23:04;;;;;;;0.60;0.57;;;;;;;29.99;73.05;100675.75;4993883;28;20508;-55
2021/08/13 10:25:31;;;;;;;1.10;1.07;;;;;;;30.56;70.70;100688.00;4984549;28;20497;-55
2021/08/13 10:27:57;;;;;;;0.50;0.40;;;;;;;30.37;70.76;100669.91;4990618;28;20535;-55
2021/08/13 10:30:24;;;;;;;0.90;0.90;;;;;;;30.46;71.93;100679.03;4994036;28;20482;-55
2021/08/13 10:32:56;;;;;;;2.10;2.00;;;;;;;29.93;72.93;100679.16;4981110;28;20480;-55
2021/08/13 10:35:46;;;;;;;2.87;2.00;;;;;;;30.59;71.45;100678.59;4993850;28;20501;-55
2021/08/13 10:38:13;;;;;;;0.50;0.50;;;;;;;30.18;71.49;100672.00;4982046;28;20498;-55
2021/08/13 10:40:41;;;;;;;4.10;1.20;;;;;;;29.92;71.04;100666.47;4982859;28;20462;-55
2021/08/13 10:43:10;;;;;;;0.50;0.40;;;;;;;29.95;72.07;100663.41;4989746;28;20453;-55
2021/08/13 10:45:38;;;;;;;0.50;0.40;;;;;;;30.68;70.01;100661.16;4980680;28;20879;-55
2021/08/13 10:48:25;;;;;;;0.80;0.80;;;;;;;30.41;69.11;100667.69;4993580;28;21015;-55
2021/08/13 10:50:59;;;;;;;46.17;1.80;;;;;;;30.78;70.27;100669.28;4989216;28;20474;-55
2021/08/13 10:53:26;;;;;;;0.50;0.50;;;;;;;30.52;70.53;100655.56;4984317;28;20997;-55
2021/08/13 10:55:54;;;;;;;1.43;0.87;;;;;;;30.66;70.45;100663.22;4985580;28;21052;-55
2021/08/13 10:58:36;;;;;;;0.50;0.30;;;;;;;31.06;69.45;100672.63;4993335;28;20957;-55
2021/08/13 11:01:08;;;;;;;0.53;0.40;;;;;;;31.35;68.23;100674.97;4982184;28;20476;-55
2021/08/13 11:03:37;;;;;;;0.60;0.40;;;;;;;31.20;68.81;100672.00;5006447;28;20488;-55
2021/08/13 11:06:04;;;;;;;1.07;1.07;;;;;;;31.34;67.97;100665.88;4990786;28;20834;-55
2021/08/13 11:08:40;;;;;;;5.20;1.90;;;;;;;31.19;66.54;100665.66;4989896;28;20470;-55
2021/08/13 11:11:11;;;;;;;1.50;1.40;;;;;;;31.22;67.72;100672.72;4993041;28;20511;-55
2021/08/13 11:13:40;;;;;;;1.80;1.70;;;;;;;31.24;67.67;100659.66;4980520;28;20519;-55
2021/08/13 11:16:42;;;;;;;3.47;3.03;;;;;;;31.30;66.62;100658.13;4993034;28;20497;-55
2021/08/13 11:19:11;;;;;;;0.87;0.87;;;;;;;31.60;63.37;100651.97;4914096;29;20504;-55
2021/08/13 11:21:46;;;;;;;0.60;0.53;;;;;;;31.70;62.64;100643.56;4981247;28;20453;-55
2021/08/13 11:24:14;;;;;;;1.40;1.40;;;;;;;31.30;62.31;100638.91;4993391;28;20445;-55
2021/08/13 11:27:00;;;;;;;0.40;0.30;;;;;;;31.77;63.62;100647.38;4993060;28;20453;-55
2021/08/13 11:29:30;;;;;;;0.50;0.30;;;;;;;31.68;61.11;100642.91;4985218;23;20514;-58